createdAt,value
2019-01-29T00:00:54.099Z,83.54
2019-01-29T00:03:23.097Z,83.48
2019-01-29T00:05:50.469Z,83.68
2019-01-29T00:08:19.473Z,83.52
2019-01-29T00:10:46.675Z,83.46
2019-01-29T00:13:14.868Z,83.56
2019-01-29T00:15:42.087Z,83.56
2019-01-29T00:18:09.372Z,83.65
2019-01-29T00:20:37.883Z,84.10
2019-01-29T00:23:07.720Z,84.49
2019-01-29T00:25:36.152Z,84.58
2019-01-29T00:28:06.088Z,84.69
2019-01-29T00:30:33.297Z,84.75
2019-01-29T00:33:02.275Z,85.04
2019-01-29T00:35:29.491Z,85.56
2019-01-29T00:37:58.416Z,85.45
2019-01-29T00:40:25.538Z,85.33
2019-01-29T00:42:54.793Z,85.06
2019-01-29T00:45:23.369Z,84.89
2019-01-29T00:47:50.464Z,84.86
2019-01-29T00:50:17.712Z,84.91
2019-01-29T00:52:46.795Z,84.61
2019-01-29T00:55:14.758Z,84.73
2019-01-29T00:57:42.313Z,84.55
2019-01-29T01:00:16.209Z,85.10
2019-01-29T01:02:43.403Z,84.88
2019-01-29T01:05:10.909Z,84.79
2019-01-29T01:07:39.775Z,84.71
2019-01-29T01:10:08.616Z,84.61
2019-01-29T01:12:35.885Z,84.67
2019-01-29T01:15:05.111Z,84.38
2019-01-29T01:17:32.449Z,84.26
2019-01-29T01:19:59.790Z,84.29
2019-01-29T01:22:27.013Z,84.53
2019-01-29T01:24:55.974Z,84.38
2019-01-29T01:27:23.189Z,84.14
2019-01-29T01:29:52.216Z,84.26
2019-01-29T01:32:23.120Z,84.26
2019-01-29T01:34:51.430Z,84.09
2019-01-29T01:37:18.858Z,84.34
2019-01-29T01:39:47.371Z,84.21
2019-01-29T01:42:14.495Z,84.30
2019-01-29T01:44:43.409Z,84.24
2019-01-29T01:47:10.845Z,84.16
2019-01-29T01:49:38.088Z,84.11
2019-01-29T01:52:05.346Z,84.03
2019-01-29T01:54:33.507Z,84.09
2019-01-29T01:57:00.881Z,84.25
2019-01-29T01:59:29.975Z,84.35
2019-01-29T02:01:57.169Z,84.26
2019-01-29T02:04:24.550Z,84.28
2019-01-29T02:06:53.510Z,84.27
2019-01-29T02:09:20.955Z,84.26
2019-01-29T02:11:48.193Z,84.25
2019-01-29T02:14:15.422Z,84.18
2019-01-29T02:16:42.792Z,84.14
2019-01-29T02:19:09.922Z,84.04
2019-01-29T02:21:37.127Z,84.18
2019-01-29T02:24:04.418Z,84.12
2019-01-29T02:26:31.811Z,84.03
2019-01-29T02:29:00.024Z,83.91
2019-01-29T02:31:27.359Z,83.93
2019-01-29T02:33:56.391Z,83.98
2019-01-29T02:36:25.392Z,84.08
2019-01-29T02:38:52.786Z,84.02
2019-01-29T02:41:20.039Z,84.16
2019-01-29T02:43:47.234Z,84.50
2019-01-29T02:46:14.646Z,84.57
2019-01-29T02:48:42.106Z,84.60
2019-01-29T02:51:09.425Z,84.45
2019-01-29T02:53:36.738Z,84.27
2019-01-29T02:56:04.278Z,84.17
2019-01-29T02:58:32.415Z,84.16
2019-01-29T03:00:59.809Z,84.26
2019-01-29T03:03:27.010Z,84.27
2019-01-29T03:05:55.216Z,84.35
2019-01-29T03:08:22.433Z,84.26
2019-01-29T03:10:50.663Z,84.27
2019-01-29T03:13:20.696Z,84.18
2019-01-29T03:15:48.899Z,84.16
2019-01-29T03:18:16.283Z,84.08
2019-01-29T03:20:45.240Z,84.34
2019-01-29T03:23:12.441Z,84.60
2019-01-29T03:25:39.547Z,84.51
2019-01-29T03:28:06.769Z,84.38
2019-01-29T03:30:33.867Z,84.35
2019-01-29T03:33:02.886Z,84.38
2019-01-29T03:35:29.988Z,84.39
2019-01-29T03:37:57.313Z,84.31
2019-01-29T03:40:25.915Z,84.24
2019-01-29T03:42:54.927Z,84.37
2019-01-29T03:45:22.557Z,84.27
2019-01-29T03:47:51.577Z,84.28
2019-01-29T03:50:19.807Z,84.22
2019-01-29T03:52:47.094Z,84.21
2019-01-29T03:55:14.613Z,84.17
2019-01-29T03:57:42.931Z,84.14
2019-01-29T04:00:15.379Z,84.08
2019-01-29T04:02:42.644Z,83.99
2019-01-29T04:05:09.744Z,83.95
2019-01-29T04:07:37.124Z,84.08
2019-01-29T04:10:05.616Z,84.03
2019-01-29T04:12:33.788Z,84.06
2019-01-29T04:15:01.031Z,84.12
2019-01-29T04:17:28.412Z,84.18
2019-01-29T04:19:55.506Z,84.10
2019-01-29T04:22:23.603Z,84.29
2019-01-29T04:24:52.026Z,84.22
2019-01-29T04:27:19.247Z,84.09
2019-01-29T04:29:46.351Z,84.29
2019-01-29T04:32:13.584Z,84.44
2019-01-29T04:34:40.924Z,84.42
2019-01-29T04:37:08.280Z,84.28
2019-01-29T04:39:36.665Z,84.22
2019-01-29T04:42:04.558Z,84.15
2019-01-29T04:44:31.785Z,84.18
2019-01-29T04:47:00.709Z,84.16
2019-01-29T04:49:27.926Z,84.13
2019-01-29T04:51:58.136Z,84.15
2019-01-29T04:54:25.395Z,84.21
2019-01-29T04:56:52.761Z,84.66
2019-01-29T04:59:20.974Z,84.47
2019-01-29T05:01:49.179Z,84.50
2019-01-29T05:04:16.566Z,84.55
2019-01-29T05:06:43.919Z,84.39
2019-01-29T05:09:11.176Z,84.61
2019-01-29T05:11:39.604Z,85.01
2019-01-29T05:14:06.711Z,84.82
2019-01-29T05:16:33.816Z,84.85
2019-01-29T05:19:00.928Z,84.93
2019-01-29T05:21:28.023Z,84.70
2019-01-29T05:23:55.125Z,84.51
2019-01-29T05:26:22.213Z,84.36
2019-01-29T05:28:49.309Z,84.33
2019-01-29T05:31:16.427Z,84.31
2019-01-29T05:33:43.517Z,84.45
2019-01-29T05:36:10.613Z,84.39
2019-01-29T05:38:37.701Z,84.33
2019-01-29T05:41:04.797Z,84.19
2019-01-29T05:43:31.889Z,84.22
2019-01-29T05:45:58.982Z,84.27
2019-01-29T05:48:26.104Z,84.30
2019-01-29T05:50:53.241Z,84.39
2019-01-29T05:53:20.328Z,84.48
2019-01-29T05:55:47.441Z,84.49
2019-01-29T05:58:14.594Z,84.46
2019-01-29T06:00:41.694Z,84.41
2019-01-29T06:03:08.796Z,84.43
2019-01-29T06:05:35.891Z,84.44
2019-01-29T06:08:05.154Z,84.45
2019-01-29T06:10:32.233Z,84.51
2019-01-29T06:12:59.339Z,84.47
2019-01-29T06:15:26.429Z,84.43
2019-01-29T06:17:53.546Z,84.46
2019-01-29T06:20:22.030Z,84.48
2019-01-29T06:22:49.245Z,84.50
2019-01-29T06:25:16.863Z,84.45
2019-01-29T06:27:44.234Z,84.48
2019-01-29T06:30:12.821Z,84.50
2019-01-29T06:32:40.104Z,84.51
2019-01-29T06:35:10.669Z,84.50
2019-01-29T06:37:38.001Z,84.52
2019-01-29T06:40:06.497Z,84.51
2019-01-29T06:42:33.591Z,84.47
2019-01-29T06:45:01.013Z,84.50
2019-01-29T06:47:29.867Z,84.52
2019-01-29T06:49:57.269Z,84.53
2019-01-29T06:52:24.558Z,84.51
2019-01-29T06:54:52.789Z,84.55
2019-01-29T06:57:20.056Z,84.55
2019-01-29T06:59:47.249Z,84.57
2019-01-29T07:02:14.639Z,84.48
2019-01-29T07:04:42.840Z,84.48
2019-01-29T07:07:10.179Z,84.44
2019-01-29T07:09:39.316Z,84.41
2019-01-29T07:12:06.623Z,84.39
2019-01-29T07:14:33.887Z,84.37
2019-01-29T07:17:25.849Z,84.35
2019-01-29T07:19:55.456Z,84.35
2019-01-29T07:22:22.873Z,84.32
2019-01-29T07:24:49.974Z,84.30
2019-01-29T07:27:17.299Z,84.38
2019-01-29T07:29:47.481Z,84.35
2019-01-29T07:32:15.846Z,84.34
2019-01-29T07:34:44.791Z,84.38
2019-01-29T07:37:12.275Z,84.40
2019-01-29T07:39:39.629Z,84.42
2019-01-29T07:42:08.733Z,84.44
2019-01-29T07:44:35.838Z,84.50
2019-01-29T07:47:03.050Z,84.59
2019-01-29T07:49:30.163Z,84.63
2019-01-29T07:51:57.530Z,84.70
2019-01-29T07:54:33.217Z,84.64
2019-01-29T07:56:56.038Z,84.57
2019-01-29T07:59:32.611Z,84.55
2019-01-29T08:01:54.725Z,84.55
2019-01-29T08:04:23.921Z,84.51
2019-01-29T08:06:52.346Z,84.49
2019-01-29T08:09:19.725Z,84.39
2019-01-29T08:11:47.104Z,84.32
2019-01-29T08:14:14.333Z,84.26
2019-01-29T08:16:41.612Z,84.29
2019-01-29T08:19:09.844Z,84.35
2019-01-29T08:21:37.137Z,84.44
2019-01-29T08:24:04.501Z,84.52
2019-01-29T08:26:31.788Z,84.54
2019-01-29T08:28:59.239Z,84.51
2019-01-29T08:31:26.462Z,84.55
2019-01-29T08:33:55.390Z,84.55
2019-01-29T08:36:22.830Z,84.53
2019-01-29T08:38:51.886Z,84.55
2019-01-29T08:41:22.601Z,84.50
2019-01-29T08:43:49.897Z,84.32
2019-01-29T08:46:17.185Z,84.40
2019-01-29T08:48:45.359Z,84.49
2019-01-29T08:51:13.588Z,84.68
2019-01-29T08:53:43.323Z,84.80
2019-01-29T08:56:12.372Z,84.92
2019-01-29T08:58:41.434Z,85.03
2019-01-29T09:01:08.874Z,85.12
2019-01-29T09:03:36.193Z,85.22
2019-01-29T09:06:03.599Z,85.26
2019-01-29T09:08:30.729Z,85.28
2019-01-29T09:10:58.122Z,85.22
2019-01-29T09:13:30.589Z,85.28
2019-01-29T09:15:59.711Z,85.30
2019-01-29T09:18:26.914Z,85.31
2019-01-29T09:20:54.008Z,85.29
2019-01-29T09:23:21.107Z,85.32
2019-01-29T09:25:48.208Z,85.35
2019-01-29T09:28:18.482Z,85.37
2019-01-29T09:30:44.366Z,85.37
2019-01-29T09:33:13.119Z,85.35
2019-01-29T09:35:43.924Z,85.34
2019-01-29T09:38:11.309Z,85.39
2019-01-29T09:40:38.612Z,85.36
2019-01-29T09:43:06.993Z,85.41
2019-01-29T09:45:34.336Z,85.49
2019-01-29T09:48:03.423Z,85.54
2019-01-29T09:50:30.530Z,85.46
2019-01-29T09:52:57.677Z,85.56
2019-01-29T09:55:29.451Z,85.66
2019-01-29T09:57:53.763Z,85.73
2019-01-29T10:00:24.276Z,85.74
2019-01-29T10:02:51.392Z,85.75
2019-01-29T10:05:18.520Z,85.68
2019-01-29T10:07:45.610Z,85.53
2019-01-29T10:10:12.945Z,85.48
2019-01-29T10:12:40.073Z,85.51
2019-01-29T10:15:10.009Z,85.54
2019-01-29T10:17:37.104Z,85.64
2019-01-29T10:20:04.507Z,85.69
2019-01-29T10:22:31.597Z,85.72
2019-01-29T10:24:58.705Z,85.70
2019-01-29T10:27:25.806Z,85.69
2019-01-29T10:29:52.909Z,85.75
2019-01-29T10:32:20.060Z,85.83
2019-01-29T10:34:47.154Z,85.79
2019-01-29T10:37:14.281Z,85.85
2019-01-29T10:39:41.407Z,85.85
2019-01-29T10:42:08.518Z,85.83
2019-01-29T10:44:35.614Z,85.83
2019-01-29T10:47:03.345Z,85.86
2019-01-29T10:49:30.432Z,85.86
2019-01-29T10:51:57.545Z,85.90
2019-01-29T10:54:24.632Z,85.94
2019-01-29T10:56:51.774Z,85.89
2019-01-29T10:59:18.859Z,85.80
2019-01-29T11:01:45.977Z,85.85
2019-01-29T11:04:13.063Z,85.94
2019-01-29T11:06:40.170Z,85.99
2019-01-29T11:09:11.343Z,86.03
2019-01-29T11:11:38.443Z,86.07
2019-01-29T11:14:05.545Z,86.07
2019-01-29T11:16:32.636Z,86.05
2019-01-29T11:19:03.375Z,86.11
2019-01-29T11:21:28.857Z,86.05
2019-01-29T11:23:55.956Z,85.99
2019-01-29T11:26:23.059Z,86.03
2019-01-29T11:28:50.216Z,86.12
2019-01-29T11:31:17.520Z,86.13
2019-01-29T11:33:44.630Z,86.11
2019-01-29T11:36:11.844Z,86.13
2019-01-29T11:38:38.972Z,86.19
2019-01-29T11:41:06.073Z,86.23
2019-01-29T11:43:33.171Z,86.27
2019-01-29T11:46:00.387Z,86.29
2019-01-29T11:48:27.523Z,86.27
2019-01-29T11:50:54.615Z,86.26
2019-01-29T11:53:21.732Z,86.28
2019-01-29T11:55:48.845Z,86.27
2019-01-29T11:58:15.939Z,86.25
2019-01-29T12:00:47.135Z,86.22
2019-01-29T12:03:14.701Z,86.22
2019-01-29T12:05:41.799Z,86.17
2019-01-29T12:08:08.909Z,86.15
2019-01-29T12:10:36.128Z,86.16
2019-01-29T12:13:04.135Z,86.16
2019-01-29T12:15:31.234Z,86.23
2019-01-29T12:17:58.341Z,86.26
2019-01-29T12:20:25.447Z,86.29
2019-01-29T12:22:52.541Z,86.37
2019-01-29T12:25:19.648Z,86.40
2019-01-29T12:27:46.851Z,86.47
2019-01-29T12:30:17.230Z,86.53
2019-01-29T12:32:44.548Z,86.58
2019-01-29T12:35:11.744Z,86.66
2019-01-29T12:37:38.856Z,86.71
2019-01-29T12:40:06.652Z,86.73
2019-01-29T12:42:33.773Z,86.77
2019-01-29T12:45:00.975Z,86.75
2019-01-29T12:47:28.289Z,86.74
2019-01-29T12:49:55.351Z,86.83
2019-01-29T12:52:28.824Z,86.84
2019-01-29T12:54:55.925Z,86.88
2019-01-29T12:57:23.039Z,86.92
2019-01-29T12:59:51.458Z,86.98
2019-01-29T13:02:18.646Z,87.00
2019-01-29T13:04:45.754Z,87.04
2019-01-29T13:07:12.881Z,87.09
2019-01-29T13:09:39.971Z,87.15
2019-01-29T13:12:07.087Z,87.17
2019-01-29T13:14:34.209Z,87.20
2019-01-29T13:17:01.325Z,87.23
2019-01-29T13:19:28.467Z,87.25
2019-01-29T13:21:55.567Z,87.26
2019-01-29T13:24:22.704Z,87.28
2019-01-29T13:26:49.834Z,87.28
2019-01-29T13:29:16.931Z,87.29
2019-01-29T13:31:44.077Z,87.31
2019-01-29T13:34:11.283Z,87.32
2019-01-29T13:36:38.388Z,87.37
2019-01-29T13:39:07.591Z,87.40
2019-01-29T13:41:34.695Z,87.44
2019-01-29T13:44:01.808Z,87.45
2019-01-29T13:46:28.909Z,87.46
2019-01-29T13:48:56.045Z,87.42
2019-01-29T13:51:23.142Z,87.40
2019-01-29T13:53:50.249Z,87.45
2019-01-29T13:56:18.251Z,87.48
2019-01-29T13:58:45.381Z,87.53
2019-01-29T14:01:12.478Z,87.53
2019-01-29T14:03:39.581Z,87.54
2019-01-29T14:06:06.705Z,87.56
2019-01-29T14:08:33.807Z,87.61
2019-01-29T14:11:01.008Z,87.54
2019-01-29T14:13:28.105Z,87.44
2019-01-29T14:15:56.727Z,87.40
2019-01-29T14:18:25.899Z,87.38
2019-01-29T14:20:53.021Z,87.33
2019-01-29T14:23:20.163Z,87.31
2019-01-29T14:25:47.299Z,87.35
2019-01-29T14:28:14.491Z,87.43
2019-01-29T14:30:41.586Z,87.32
2019-01-29T14:33:08.699Z,87.33
2019-01-29T14:35:35.819Z,87.31
2019-01-29T14:38:44.878Z,87.34
2019-01-29T14:41:12.503Z,87.38
2019-01-29T14:43:41.772Z,87.28
2019-01-29T14:46:08.902Z,87.19
2019-01-29T14:48:36.256Z,87.16
2019-01-29T14:51:03.613Z,87.12
2019-01-29T14:53:32.127Z,87.08
2019-01-29T14:55:59.457Z,87.02
2019-01-29T14:58:27.709Z,86.98
2019-01-29T15:00:55.279Z,86.92
2019-01-29T15:03:22.472Z,86.89
2019-01-29T15:05:52.585Z,86.83
2019-01-29T15:08:19.903Z,86.81
2019-01-29T15:10:47.190Z,86.75
2019-01-29T15:13:14.348Z,86.74
2019-01-29T15:15:47.067Z,86.66
2019-01-29T15:18:19.087Z,86.60
2019-01-29T15:20:48.089Z,86.56
2019-01-29T15:23:15.628Z,86.52
2019-01-29T15:25:43.991Z,86.44
2019-01-29T15:28:11.075Z,86.37
2019-01-29T15:30:38.405Z,86.35
2019-01-29T15:33:05.866Z,86.40
2019-01-29T15:35:33.103Z,86.39
2019-01-29T15:38:00.245Z,86.35
2019-01-29T15:40:27.309Z,86.29
2019-01-29T15:42:56.130Z,86.22
2019-01-29T15:45:23.956Z,86.22
2019-01-29T15:47:51.067Z,86.23
2019-01-29T15:50:19.805Z,86.16
2019-01-29T15:52:48.662Z,86.15
2019-01-29T15:55:16.352Z,86.13
2019-01-29T15:57:44.196Z,86.15
2019-01-29T16:00:17.830Z,86.09
2019-01-29T16:02:44.941Z,86.09
2019-01-29T16:05:14.211Z,86.05
2019-01-29T16:07:41.328Z,86.03
2019-01-29T16:10:11.140Z,86.03
2019-01-29T16:12:38.254Z,86.08
2019-01-29T16:15:05.707Z,86.04
2019-01-29T16:17:32.853Z,86.01
2019-01-29T16:19:59.980Z,86.02
2019-01-29T16:22:27.083Z,86.05
2019-01-29T16:24:54.173Z,86.07
2019-01-29T16:27:22.754Z,86.02
2019-01-29T16:29:50.221Z,86.00
2019-01-29T16:32:17.337Z,85.94
2019-01-29T16:34:44.474Z,85.94
2019-01-29T16:37:11.563Z,85.94
2019-01-29T16:39:38.685Z,85.85
2019-01-29T16:42:08.474Z,85.91
2019-01-29T16:44:35.607Z,85.89
2019-01-29T16:47:02.986Z,85.89
2019-01-29T16:49:30.050Z,85.88
2019-01-29T16:51:57.155Z,85.83
2019-01-29T16:54:27.371Z,85.73
2019-01-29T16:56:54.476Z,85.74
2019-01-29T16:59:21.587Z,85.73
2019-01-29T17:01:48.721Z,85.69
2019-01-29T17:04:15.832Z,85.58
2019-01-29T17:06:42.928Z,85.58
2019-01-29T17:09:11.198Z,85.57
2019-01-29T17:11:38.302Z,85.54
2019-01-29T17:14:05.402Z,85.53
2019-01-29T17:16:32.540Z,85.57
2019-01-29T17:18:59.642Z,85.53
2019-01-29T17:21:26.731Z,85.58
2019-01-29T17:23:53.898Z,85.56
2019-01-29T17:26:21.023Z,85.61
2019-01-29T17:28:48.209Z,85.59
2019-01-29T17:31:15.323Z,85.60
2019-01-29T17:33:42.471Z,85.61
2019-01-29T17:36:09.585Z,85.62
2019-01-29T17:38:44.383Z,85.63
2019-01-29T17:41:05.704Z,85.64
2019-01-29T17:43:32.804Z,85.58
2019-01-29T17:45:59.907Z,85.53
2019-01-29T17:48:27.025Z,85.52
2019-01-29T17:50:54.147Z,85.51
2019-01-29T17:53:21.240Z,85.48
2019-01-29T17:55:48.365Z,85.43
2019-01-29T17:58:15.495Z,85.35
2019-01-29T18:00:53.011Z,85.25
2019-01-29T18:03:20.160Z,85.26
2019-01-29T18:05:47.515Z,85.23
2019-01-29T18:08:14.652Z,85.17
2019-01-29T18:10:44.414Z,85.18
2019-01-29T18:13:11.520Z,85.20
2019-01-29T18:15:38.643Z,85.13
2019-01-29T18:18:05.943Z,85.12
2019-01-29T18:20:36.117Z,85.04
2019-01-29T18:23:05.738Z,85.03
2019-01-29T18:25:32.472Z,85.01
2019-01-29T18:28:01.438Z,85.04
2019-01-29T18:30:32.081Z,85.04
2019-01-29T18:32:59.149Z,85.02
2019-01-29T18:35:26.355Z,84.98
2019-01-29T18:37:54.572Z,84.96
2019-01-29T18:40:24.479Z,84.80
2019-01-29T18:42:51.671Z,84.88
2019-01-29T18:45:18.772Z,84.79
2019-01-29T18:47:45.912Z,84.77
2019-01-29T18:50:14.227Z,84.79
2019-01-29T18:52:41.363Z,84.77
2019-01-29T18:55:09.311Z,84.78
2019-01-29T18:57:36.409Z,84.77
2019-01-29T19:00:05.319Z,84.74
2019-01-29T19:02:32.482Z,84.76
2019-01-29T19:04:59.614Z,84.77
2019-01-29T19:07:26.721Z,84.70
2019-01-29T19:09:53.825Z,84.62
2019-01-29T19:12:20.956Z,84.58
2019-01-29T19:14:48.056Z,84.55
2019-01-29T19:17:15.212Z,84.49
2019-01-29T19:19:42.375Z,84.51
2019-01-29T19:22:09.469Z,84.51
2019-01-29T19:24:36.613Z,84.49
2019-01-29T19:27:03.761Z,84.52
2019-01-29T19:29:31.225Z,84.44
2019-01-29T19:31:58.343Z,84.41
2019-01-29T19:34:25.476Z,84.48
2019-01-29T19:36:52.575Z,84.47
2019-01-29T19:39:19.718Z,84.49
2019-01-29T19:41:46.947Z,84.46
2019-01-29T19:44:14.058Z,84.51
2019-01-29T19:46:42.381Z,84.49
2019-01-29T19:49:11.433Z,84.53
2019-01-29T19:51:38.908Z,84.47
2019-01-29T19:54:06.147Z,84.51
2019-01-29T19:56:33.488Z,84.52
2019-01-29T19:59:01.237Z,84.36
2019-01-29T20:01:28.476Z,84.41
2019-01-29T20:03:58.528Z,84.40
2019-01-29T20:06:25.857Z,84.40
2019-01-29T20:08:55.962Z,84.35
2019-01-29T20:11:24.654Z,84.43
2019-01-29T20:13:53.808Z,84.46
2019-01-29T20:16:21.223Z,84.49
2019-01-29T20:18:49.139Z,84.52
2019-01-29T20:21:16.603Z,84.54
2019-01-29T20:23:44.873Z,84.53
2019-01-29T20:26:12.461Z,84.50
2019-01-29T20:28:42.439Z,84.43
2019-01-29T20:31:08.893Z,84.42
2019-01-29T20:33:36.247Z,84.33
2019-01-29T20:36:05.151Z,84.34
2019-01-29T20:38:35.301Z,84.28
2019-01-29T20:41:04.247Z,84.33
2019-01-29T20:43:32.533Z,84.37
2019-01-29T20:46:01.436Z,84.38
2019-01-29T20:48:28.842Z,84.42
2019-01-29T20:50:57.066Z,84.44
2019-01-29T20:53:24.287Z,84.37
2019-01-29T20:55:51.617Z,84.26
2019-01-29T20:58:18.884Z,84.25
2019-01-29T21:00:47.340Z,83.96
2019-01-29T21:03:15.679Z,84.10
2019-01-29T21:05:42.896Z,84.15
2019-01-29T21:08:11.906Z,84.10
2019-01-29T21:10:39.204Z,84.02
2019-01-29T21:13:06.314Z,84.03
2019-01-29T21:15:38.560Z,84.02
2019-01-29T21:18:02.859Z,84.01
2019-01-29T21:20:30.423Z,84.05
2019-01-29T21:22:57.822Z,84.15
2019-01-29T21:25:25.096Z,84.20
2019-01-29T21:27:53.487Z,84.19
2019-01-29T21:30:26.257Z,84.17
2019-01-29T21:32:53.456Z,84.16
2019-01-29T21:35:20.664Z,84.21
2019-01-29T21:37:49.664Z,84.23
2019-01-29T21:40:18.284Z,84.09
2019-01-29T21:42:46.707Z,84.09
2019-01-29T21:45:14.349Z,84.05
2019-01-29T21:47:45.241Z,83.93
2019-01-29T21:50:17.311Z,84.01
2019-01-29T21:52:46.216Z,83.90
2019-01-29T21:55:15.492Z,84.03
2019-01-29T21:57:42.639Z,84.10
2019-01-29T22:00:19.787Z,84.07
2019-01-29T22:02:47.359Z,84.06
2019-01-29T22:05:14.681Z,84.08
2019-01-29T22:07:41.920Z,84.04
2019-01-29T22:10:09.627Z,84.09
2019-01-29T22:12:36.732Z,84.06
2019-01-29T22:15:07.617Z,84.08
2019-01-29T22:17:34.713Z,84.12
2019-01-29T22:20:02.092Z,84.10
2019-01-29T22:22:32.586Z,84.09
2019-01-29T22:24:59.932Z,84.08
2019-01-29T22:27:29.959Z,83.95
2019-01-29T22:29:57.244Z,83.99
2019-01-29T22:32:24.633Z,84.01
2019-01-29T22:34:53.556Z,84.07
2019-01-29T22:37:20.784Z,84.09
2019-01-29T22:39:47.932Z,84.07
2019-01-29T22:42:16.882Z,84.09
2019-01-29T22:44:44.323Z,84.05
2019-01-29T22:47:12.536Z,84.04
2019-01-29T22:49:39.700Z,83.89
2019-01-29T22:52:06.992Z,83.75
2019-01-29T22:54:34.190Z,83.89
2019-01-29T22:57:02.687Z,83.92
2019-01-29T22:59:33.316Z,83.80
2019-01-29T23:01:59.176Z,83.57
2019-01-29T23:04:30.075Z,83.67
2019-01-29T23:07:21.734Z,83.86
2019-01-29T23:09:48.887Z,83.95
2019-01-29T23:12:15.948Z,83.60
2019-01-29T23:14:43.052Z,83.55
2019-01-29T23:17:10.242Z,83.71
2019-01-29T23:19:38.474Z,83.36
2019-01-29T23:22:06.660Z,83.28
2019-01-29T23:24:33.745Z,83.46
2019-01-29T23:27:00.940Z,83.58
2019-01-29T23:29:29.885Z,83.64
2019-01-29T23:31:58.119Z,83.43
2019-01-29T23:34:26.328Z,83.25
2019-01-29T23:36:53.524Z,83.30
2019-01-29T23:39:24.279Z,83.46
2019-01-29T23:41:51.452Z,83.62
2019-01-29T23:44:18.832Z,83.68
2019-01-29T23:46:47.752Z,83.50
2019-01-29T23:49:14.988Z,83.37
2019-01-29T23:51:42.182Z,83.26
2019-01-29T23:54:09.486Z,83.37
2019-01-29T23:56:36.580Z,83.39
2019-01-29T23:59:04.452Z,83.37
